Time;durP1;ratioP1;P1;durP2;ratioP2;P2;SDS_P1;SDS_P2;PMS_P1;PMS_P2;Temp;Humidity;BMP_temperature;BMP_pressure;BME280_temperature;BME280_humidity;BME280_pressure;Samples;Min_cycle;Max_cycle;Signal;HPM_P1;HPM_P2
2021/12/03 10:10:06;;;;;;;;;;;;;;;15.52;65.69;99037.88;5054369;28;1914;-54
2021/12/03 10:15:10;;;;;;;;;;;;;;;15.62;65.65;99024.81;5070742;28;1154;-53
2021/12/03 10:18:03;;;;;;;;;;;;;;;15.50;65.67;99017.31;5088591;28;918;-54
2021/12/03 10:31:56;;;;;;;;;;;;;;;15.31;64.45;99013.63;5088293;28;697;-55
2021/12/03 10:56:15;;;;;;;;;;;;;;;15.80;63.68;98993.50;5087794;28;744;-56
2021/12/03 11:12:43;;;;;;;;;;;;;;;15.64;63.45;98979.75;5074100;28;631;-53
2021/12/03 11:29:24;;;;;;;;;;;;;;;15.46;63.02;98992.34;5073638;28;1893;-54
2021/12/03 11:37:33;;;;;;;;;;;;;;;15.04;64.28;98989.16;5073741;28;765;-54
2021/12/03 11:40:35;;;;;;;;;;;;;;;15.26;64.56;98989.16;5073252;28;1480;-53
2021/12/03 11:43:14;;;;;;;;;;;;;;;15.35;63.86;98982.88;5072615;28;1410;-54
2021/12/03 11:55:34;;;;;;;;;;;;;;;16.19;60.90;98973.66;5073277;28;689;-53
2021/12/03 12:36:51;;;;;;;;;;;;;;;17.61;56.63;98954.69;5032563;28;729;-57
2021/12/03 12:45:13;;;;;;;;;;;;;;;17.73;56.26;98942.53;5032279;28;736;-57
2021/12/03 14:02:39;;;;;;;;;;;;;;;14.77;58.82;98984.16;5071445;28;756;-57
2021/12/03 14:08:15;;;;;;;;;;;;;;;14.29;60.38;98996.06;5071106;28;2032;-56
2021/12/03 14:45:54;;;;;;;;;;;;;;;12.76;65.04;99040.97;5074453;28;806;-56
2021/12/03 14:48:49;;;;;;;;;;;;;;;12.68;65.06;99045.13;5074075;28;1889;-57
2021/12/03 14:56:46;;;;;;;;;;;;;;;12.35;66.54;99052.66;5074359;28;771;-56
2021/12/03 14:59:21;;;;;;;;;;;;;;;12.33;66.26;99038.47;5074103;28;1356;-56
2021/12/03 15:01:57;;;;;;;;;;;;;;;12.34;66.38;99046.34;5074273;28;867;-56
2021/12/03 15:07:15;;;;;;;;;;;;;;;12.71;65.33;99068.44;5074071;28;1971;-57
2021/12/03 15:09:43;;;;;;;;;;;;;;;12.89;66.66;99063.22;5074093;28;847;-57
2021/12/03 15:20:48;;;;;;;;;;;;;;;13.19;73.16;99055.69;5073943;28;736;-56
2021/12/03 15:28:37;;;;;;;;;;;;;;;12.74;74.75;99060.03;5073744;28;1957;-56
2021/12/03 15:33:47;;;;;;;;;;;;;;;12.26;76.77;99056.81;5073710;28;676;-56
2021/12/03 16:05:17;;;;;;;;;;;;;;;12.45;82.61;99118.94;5677623;23;2070;-57
2021/12/03 16:10:39;;;;;;;;;;;;;;;12.36;82.56;99129.84;4974545;28;682;-56
2021/12/03 16:26:44;;;;;;;;;;;;;;;12.42;84.86;99150.28;4973977;28;721;-56
2021/12/03 16:51:07;;;;;;;;;;;;;;;11.41;86.59;99151.56;4973564;28;698;-56
2021/12/03 16:53:34;;;;;;;;;;;;;;;11.44;86.60;99166.53;4973474;28;924;-57
2021/12/03 16:56:10;;;;;;;;;;;;;;;11.43;86.41;99164.94;4973365;28;971;-57
2021/12/03 16:58:38;;;;;;;;;;;;;;;11.42;87.07;99166.16;4972934;28;955;-57
2021/12/03 17:01:09;;;;;;;;;;;;;;;11.51;86.86;99168.38;4973401;28;858;-56
2021/12/03 17:09:02;;;;;;;;;;;;;;;11.51;87.66;99165.59;4973188;28;1910;-56
2021/12/03 17:16:49;;;;;;;;;;;;;;;11.43;87.80;99168.50;4973114;28;855;-57
2021/12/03 17:20:03;;;;;;;;;;;;;;;11.50;89.58;99175.09;4972732;28;2034;-56
2021/12/03 17:46:52;;;;;;;;;;;;;;;11.63;87.03;99190.66;4972759;28;695;-57
2021/12/03 17:54:25;;;;;;;;;;;;;;;11.35;87.96;99205.00;4972595;28;1202;-57
2021/12/03 17:56:53;;;;;;;;;;;;;;;11.16;88.23;99203.75;4972617;28;881;-56
2021/12/03 17:59:24;;;;;;;;;;;;;;;10.97;88.92;99202.50;4972685;28;1206;-57
2021/12/03 18:04:44;;;;;;;;;;;;;;;10.90;89.87;99202.59;4972699;28;946;-57
2021/12/03 18:07:53;;;;;;;;;;;;;;;11.08;90.45;99200.34;4972357;28;1915;-57
2021/12/03 18:48:39;;;;;;;;;;;;;;;10.90;89.79;99219.19;4975682;28;1890;-56
2021/12/03 18:51:14;;;;;;;;;;;;;;;10.96;89.92;99204.47;4975994;28;856;-57
2021/12/03 18:59:06;;;;;;;;;;;;;;;10.51;90.90;99212.28;4975629;28;785;-57
2021/12/03 19:01:34;;;;;;;;;;;;;;;10.41;91.17;99212.00;4975676;28;876;-57
2021/12/03 19:06:38;;;;;;;;;;;;;;;10.08;91.32;99212.81;4975251;28;1431;-57
2021/12/03 19:11:57;;;;;;;;;;;;;;;9.95;92.43;99227.16;4975666;28;647;-57
2021/12/03 19:14:25;;;;;;;;;;;;;;;9.88;92.43;99224.47;4957929;28;876;-56
2021/12/03 19:16:51;;;;;;;;;;;;;;;9.83;92.72;99233.19;4975244;28;860;-56
2021/12/03 19:19:18;;;;;;;;;;;;;;;9.78;92.33;99228.13;4975288;28;836;-56
2021/12/03 19:21:46;;;;;;;;;;;;;;;9.73;92.58;99226.63;4974767;28;821;-56
2021/12/03 19:24:14;;;;;;;;;;;;;;;9.67;92.53;99222.72;4975340;28;860;-57
2021/12/03 19:26:44;;;;;;;;;;;;;;;9.70;92.71;99223.88;4975055;28;908;-57
2021/12/03 19:29:15;;;;;;;;;;;;;;;9.70;92.08;99232.16;4974916;28;1918;-57
2021/12/03 19:31:42;;;;;;;;;;;;;;;9.59;92.12;99232.28;4957606;28;882;-56
2021/12/03 19:34:10;;;;;;;;;;;;;;;9.50;92.73;99246.56;4974987;28;837;-56
2021/12/03 19:36:41;;;;;;;;;;;;;;;9.49;93.05;99239.44;4974915;28;872;-56
2021/12/03 19:39:08;;;;;;;;;;;;;;;9.51;92.95;99244.56;4974818;28;932;-57
2021/12/03 19:44:11;;;;;;;;;;;;;;;9.37;93.89;99234.47;4975087;28;896;-56
2021/12/03 19:46:41;;;;;;;;;;;;;;;9.44;94.78;99234.38;4974704;28;959;-56
2021/12/03 19:49:19;;;;;;;;;;;;;;;9.60;94.60;99236.59;4974686;28;1949;-56
2021/12/03 19:51:52;;;;;;;;;;;;;;;9.89;94.71;99242.59;4974607;28;939;-56
2021/12/03 19:54:19;;;;;;;;;;;;;;;10.19;94.28;99244.59;4974802;28;832;-57
2021/12/03 19:56:46;;;;;;;;;;;;;;;10.60;93.61;99246.50;4974560;28;812;-57
2021/12/03 19:59:13;;;;;;;;;;;;;;;10.84;92.92;99238.25;4974458;28;836;-57
2021/12/03 20:01:39;;;;;;;;;;;;;;;10.96;91.96;99247.94;4974464;28;876;-57
2021/12/03 20:04:07;;;;;;;;;;;;;;;11.01;92.21;99241.94;4957094;28;939;-57
2021/12/03 20:06:35;;;;;;;;;;;;;;;11.00;91.52;99243.91;4974243;28;1420;-57
2021/12/03 20:09:03;;;;;;;;;;;;;;;10.94;91.38;99233.75;4974189;28;1957;-57
2021/12/03 20:14:26;;;;;;;;;;;;;;;11.12;91.82;99234.25;4965191;28;1394;-57
2021/12/03 20:16:59;;;;;;;;;;;;;;;11.17;91.33;99228.25;4974285;28;817;-57
2021/12/03 20:21:56;;;;;;;;;;;;;;;11.19;90.79;99233.34;4974044;28;721;-57
2021/12/03 20:24:30;;;;;;;;;;;;;;;11.23;90.56;99234.84;4974004;28;889;-57
2021/12/03 20:27:05;;;;;;;;;;;;;;;11.20;89.94;99244.00;4974004;28;825;-57
2021/12/03 20:29:38;;;;;;;;;;;;;;;11.21;89.94;99248.31;4973882;28;892;-57
2021/12/03 20:34:56;;;;;;;;;;;;;;;11.15;89.59;99240.94;4973879;28;729;-57
2021/12/03 20:40:00;;;;;;;;;;;;;;;10.85;89.91;99230.75;4973733;28;647;-57
2021/12/03 20:42:32;;;;;;;;;;;;;;;10.69;90.00;99234.91;4973946;28;935;-57
2021/12/03 20:45:19;;;;;;;;;;;;;;;10.71;90.74;99228.94;4973591;28;943;-57
2021/12/03 20:48:02;;;;;;;;;;;;;;;10.87;90.66;99225.56;4973492;28;1942;-57
2021/12/03 21:09:38;;;;;;;;;;;;;;;11.26;88.88;99254.59;4969765;28;1134;-57
2021/12/03 21:12:09;;;;;;;;;;;;;;;11.32;88.85;99250.91;4973133;28;900;-57
2021/12/03 21:14:38;;;;;;;;;;;;;;;11.38;88.52;99251.22;4973354;28;832;-57
2021/12/03 21:17:25;;;;;;;;;;;;;;;11.45;88.49;99259.41;4973078;28;850;-57
2021/12/03 21:20:21;;;;;;;;;;;;;;;11.58;88.77;99254.81;4955767;28;780;-57
2021/12/03 21:22:45;;;;;;;;;;;;;;;11.72;88.54;99255.78;4972552;28;1628;-57
2021/12/03 21:25:15;;;;;;;;;;;;;;;11.71;87.90;99249.44;4972925;28;873;-57
2021/12/03 21:27:43;;;;;;;;;;;;;;;11.63;88.32;99248.03;4972797;28;1977;-57
2021/12/03 21:33:01;;;;;;;;;;;;;;;11.62;88.18;99247.22;4973149;28;773;-57
2021/12/03 21:43:22;;;;;;;;;;;;;;;11.80;88.03;99255.22;4972646;28;713;-57
2021/12/03 21:45:49;;;;;;;;;;;;;;;11.88;87.91;99257.84;4972809;28;848;-57
2021/12/03 21:48:15;;;;;;;;;;;;;;;11.94;87.55;99259.72;4972582;28;1981;-57
2021/12/03 21:50:42;;;;;;;;;;;;;;;11.95;87.32;99254.94;4972750;28;860;-57
2021/12/03 21:53:08;;;;;;;;;;;;;;;11.93;87.48;99246.31;4972715;28;896;-57
2021/12/03 21:55:38;;;;;;;;;;;;;;;11.92;87.14;99241.97;4955356;28;1189;-57
2021/12/03 21:58:05;;;;;;;;;;;;;;;11.85;86.86;99240.88;4972709;28;813;-57
2021/12/03 22:00:32;;;;;;;;;;;;;;;11.79;87.24;99253.63;4972636;28;896;-57
2021/12/03 22:02:59;;;;;;;;;;;;;;;11.70;87.09;99252.66;4972570;28;959;-57
2021/12/03 22:05:25;;;;;;;;;;;;;;;11.61;87.43;99256.75;4972603;28;1365;-57
2021/12/03 22:07:53;;;;;;;;;;;;;;;11.53;87.67;99258.06;4972440;28;1910;-57
2021/12/03 22:10:20;;;;;;;;;;;;;;;11.46;87.45;99247.13;4972433;28;879;-57
2021/12/03 22:12:47;;;;;;;;;;;;;;;11.44;87.65;99253.09;4972523;28;811;-57
2021/12/03 22:15:13;;;;;;;;;;;;;;;11.44;88.01;99247.53;4972383;28;911;-57
2021/12/03 22:17:40;;;;;;;;;;;;;;;11.39;87.54;99248.03;4955187;28;924;-57
2021/12/03 22:20:07;;;;;;;;;;;;;;;11.31;88.08;99246.59;4972498;28;944;-57
2021/12/03 22:22:33;;;;;;;;;;;;;;;11.21;87.79;99237.25;4972370;28;888;-57
2021/12/03 22:25:00;;;;;;;;;;;;;;;11.18;88.47;99242.84;4972377;28;805;-57
2021/12/03 22:27:29;;;;;;;;;;;;;;;11.22;88.33;99240.81;4972573;28;1962;-57
2021/12/03 22:29:56;;;;;;;;;;;;;;;11.27;89.07;99229.28;4972172;28;860;-57
2021/12/03 22:32:23;;;;;;;;;;;;;;;11.34;88.75;99228.38;4972332;28;882;-57
2021/12/03 22:34:50;;;;;;;;;;;;;;;11.34;88.94;99228.38;4972362;28;903;-57
2021/12/03 22:37:16;;;;;;;;;;;;;;;11.37;88.77;99221.97;4972519;28;876;-57
2021/12/03 22:39:44;;;;;;;;;;;;;;;11.36;88.95;99218.44;4972206;28;860;-57
2021/12/03 22:42:11;;;;;;;;;;;;;;;11.37;89.13;99221.97;4972251;28;820;-57
2021/12/03 22:44:38;;;;;;;;;;;;;;;11.33;89.23;99215.72;4972175;28;852;-57
2021/12/03 22:52:19;;;;;;;;;;;;;;;11.11;90.00;99204.25;4972183;28;757;-57
2021/12/03 22:54:46;;;;;;;;;;;;;;;11.06;90.75;99202.75;4972380;28;825;-57
2021/12/03 22:57:14;;;;;;;;;;;;;;;11.07;90.80;99209.81;4975516;28;951;-56
2021/12/03 22:59:42;;;;;;;;;;;;;;;11.02;90.66;99211.09;4975532;28;797;-56
2021/12/03 23:02:10;;;;;;;;;;;;;;;10.77;90.75;99210.69;4975779;28;803;-65
2021/12/03 23:04:40;;;;;;;;;;;;;;;10.51;91.19;99213.06;4975609;28;1035;-70
2021/12/03 23:07:10;;;;;;;;;;;;;;;10.34;91.86;99209.34;4975349;28;1261;-76
2021/12/03 23:09:37;;;;;;;;;;;;;;;10.20;92.13;99217.78;4958374;28;1529;-73
2021/12/03 23:12:04;;;;;;;;;;;;;;;10.08;92.93;99216.34;4975333;28;888;-65
2021/12/03 23:14:30;;;;;;;;;;;;;;;9.99;93.78;99203.03;4975688;28;841;-63
2021/12/03 23:16:58;;;;;;;;;;;;;;;9.98;94.49;99212.50;4975307;28;932;-66
2021/12/03 23:19:29;;;;;;;;;;;;;;;9.99;96.09;99222.38;4975231;28;856;-66
2021/12/03 23:21:56;;;;;;;;;;;;;;;9.74;92.63;99224.63;4975195;28;821;-64
2021/12/03 23:24:23;;;;;;;;;;;;;;;9.19;89.02;99224.34;4975164;28;879;-65
2021/12/03 23:26:50;;;;;;;;;;;;;;;8.87;90.81;99213.59;4975144;28;797;-67
2021/12/03 23:29:17;;;;;;;;;;;;;;;8.68;92.11;99201.13;4975157;28;1953;-70
2021/12/03 23:31:45;;;;;;;;;;;;;;;8.55;91.02;99222.06;4957800;28;818;-69
2021/12/03 23:34:13;;;;;;;;;;;;;;;8.27;92.08;99240.28;4957657;28;1189;-60
2021/12/03 23:36:40;;;;;;;;;;;;;;;8.03;93.39;99238.44;4975186;28;856;-60
2021/12/03 23:39:07;;;;;;;;;;;;;;;7.82;94.84;99234.56;4975153;28;824;-57
2021/12/03 23:41:33;;;;;;;;;;;;;;;7.69;95.56;99234.19;4975649;28;774;-56
2021/12/03 23:44:00;;;;;;;;;;;;;;;7.57;96.71;99227.16;4975507;28;899;-57
2021/12/03 23:46:28;;;;;;;;;;;;;;;7.49;96.91;99238.56;4974879;28;903;-60
2021/12/03 23:48:55;;;;;;;;;;;;;;;7.44;96.38;99272.72;4974856;28;1883;-59
2021/12/03 23:51:24;;;;;;;;;;;;;;;7.33;96.84;99271.97;4974937;28;817;-59
2021/12/03 23:53:51;;;;;;;;;;;;;;;7.24;97.47;99255.09;4974944;28;1346;-58
2021/12/03 23:56:17;;;;;;;;;;;;;;;7.13;97.46;99253.13;4974677;28;809;-58
2021/12/03 23:58:46;;;;;;;;;;;;;;;7.09;97.35;99248.81;4957338;28;904;-58
